createdAt,value
2023-03-29T00:01:35.797Z,96083.22
2023-03-29T00:04:04.709Z,96078.13
2023-03-29T00:06:31.424Z,96075.00
2023-03-29T00:08:57.885Z,96077.31
2023-03-29T00:11:25.223Z,96092.84
2023-03-29T00:13:52.051Z,96094.81
2023-03-29T00:16:18.857Z,96103.38
2023-03-29T00:18:45.372Z,96111.78
2023-03-29T00:21:12.278Z,96104.06
2023-03-29T00:23:38.871Z,96095.97
2023-03-29T00:26:07.808Z,96095.66
2023-03-29T00:28:34.661Z,96099.09
2023-03-29T00:31:10.823Z,96093.47
2023-03-29T00:33:38.625Z,96103.72
2023-03-29T00:36:06.438Z,96094.47
2023-03-29T00:38:33.175Z,96089.69
2023-03-29T00:41:00.348Z,96085.91
2023-03-29T00:43:27.525Z,96076.31
2023-03-29T00:45:54.065Z,96077.50
2023-03-29T00:48:27.517Z,96072.38
2023-03-29T00:50:56.319Z,96071.75
2023-03-29T00:53:34.898Z,96062.00
2023-03-29T00:56:20.826Z,96062.34
2023-03-29T00:59:13.055Z,96064.16
2023-03-29T01:01:50.228Z,96062.69
2023-03-29T01:04:25.427Z,96063.16
2023-03-29T01:07:02.993Z,96063.66
2023-03-29T01:09:35.443Z,96049.63
2023-03-29T01:12:09.837Z,96058.06
2023-03-29T01:14:45.804Z,96036.91
2023-03-29T01:17:12.331Z,96033.44
2023-03-29T01:19:51.868Z,96043.19
2023-03-29T01:22:33.586Z,96034.75
2023-03-29T01:25:34.582Z,96028.63
2023-03-29T01:28:13.373Z,96036.75
2023-03-29T01:30:48.203Z,96036.09
2023-03-29T01:33:20.940Z,96036.63
2023-03-29T01:36:24.450Z,96036.28
2023-03-29T01:38:57.351Z,96030.97
2023-03-29T01:41:35.576Z,96021.59
2023-03-29T01:44:11.497Z,96025.59
2023-03-29T01:46:47.852Z,96027.50
2023-03-29T01:49:29.430Z,96027.53
2023-03-29T01:52:06.474Z,96050.22
2023-03-29T01:54:44.792Z,96082.00
2023-03-29T01:57:12.467Z,96085.38
2023-03-29T01:59:43.672Z,96069.06
2023-03-29T02:02:15.846Z,96067.13
2023-03-29T02:04:48.894Z,96068.69
2023-03-29T02:07:19.166Z,96066.47
2023-03-29T02:09:49.323Z,96063.16
2023-03-29T02:12:17.077Z,96037.94
2023-03-29T02:14:43.622Z,96046.69
2023-03-29T02:17:22.565Z,96024.88
2023-03-29T02:20:10.248Z,96049.28
2023-03-29T02:22:46.716Z,96037.03
2023-03-29T02:25:13.543Z,96047.88
2023-03-29T02:27:40.217Z,96051.19
2023-03-29T02:30:10.025Z,96056.69
2023-03-29T02:33:14.848Z,96038.09
2023-03-29T02:35:53.908Z,96044.03
2023-03-29T02:38:23.516Z,96067.72
2023-03-29T02:40:50.041Z,96070.94
2023-03-29T02:43:17.118Z,96057.13
2023-03-29T02:45:45.758Z,96055.41
2023-03-29T02:48:17.953Z,96067.41
2023-03-29T02:50:49.364Z,96064.38
2023-03-29T02:53:20.511Z,96050.81
2023-03-29T02:55:47.029Z,96034.31
2023-03-29T02:58:14.800Z,96050.28
2023-03-29T03:00:47.253Z,96080.63
2023-03-29T03:03:14.898Z,96071.03
2023-03-29T03:05:41.424Z,96055.84
2023-03-29T03:08:07.888Z,96047.88
2023-03-29T03:10:35.737Z,96048.84
2023-03-29T03:13:02.790Z,96034.16
2023-03-29T03:15:29.294Z,96037.03
2023-03-29T03:17:55.749Z,96021.03
2023-03-29T03:20:22.207Z,96021.81
2023-03-29T03:22:49.453Z,96027.78
2023-03-29T03:25:17.762Z,96042.00
2023-03-29T03:27:44.346Z,96048.53
2023-03-29T03:30:11.510Z,96046.50
2023-03-29T03:32:38.152Z,96082.81
2023-03-29T03:35:06.008Z,96083.16
2023-03-29T03:37:32.569Z,96073.19
2023-03-29T03:39:59.100Z,96060.66
2023-03-29T03:42:28.441Z,96049.28
2023-03-29T03:44:55.580Z,96026.63
2023-03-29T03:47:22.896Z,96014.75
2023-03-29T03:49:49.414Z,96003.22
2023-03-29T03:52:15.956Z,96006.22
2023-03-29T03:54:42.449Z,96015.41
2023-03-29T03:57:09.015Z,96019.28
2023-03-29T03:59:35.593Z,96019.56
2023-03-29T04:02:02.118Z,96005.63
2023-03-29T04:04:28.613Z,96012.03
2023-03-29T04:06:55.126Z,96018.44
2023-03-29T04:09:24.160Z,96019.47
2023-03-29T04:11:50.718Z,96017.94
2023-03-29T04:14:17.192Z,96016.28
2023-03-29T04:16:43.778Z,96014.34
2023-03-29T04:19:10.231Z,96011.41
2023-03-29T04:21:36.744Z,96016.28
2023-03-29T04:24:03.334Z,96016.97
2023-03-29T04:26:29.832Z,96015.34
2023-03-29T04:28:56.439Z,96025.56
2023-03-29T04:31:23.061Z,96029.19
2023-03-29T04:33:49.574Z,96018.13
2023-03-29T04:36:16.153Z,96010.06
2023-03-29T04:38:47.422Z,96011.69
2023-03-29T04:41:14.787Z,96004.09
2023-03-29T04:43:41.285Z,96011.69
2023-03-29T04:46:07.949Z,96005.09
2023-03-29T04:48:34.453Z,96005.75
2023-03-29T04:51:01.074Z,96011.03
2023-03-29T04:53:27.736Z,96001.13
2023-03-29T04:55:54.182Z,96012.38
2023-03-29T04:58:22.165Z,96009.38
2023-03-29T05:00:50.221Z,96012.94
2023-03-29T05:03:16.829Z,96011.78
2023-03-29T05:05:43.289Z,96015.00
2023-03-29T05:08:09.799Z,96012.41
2023-03-29T05:10:37.149Z,96000.50
2023-03-29T05:13:03.631Z,96001.34
2023-03-29T05:15:31.001Z,96003.38
2023-03-29T05:17:57.580Z,96009.06
2023-03-29T05:20:25.275Z,96004.63
2023-03-29T05:22:51.862Z,96001.34
2023-03-29T05:25:18.363Z,96005.25
2023-03-29T05:27:45.005Z,95999.19
2023-03-29T05:30:13.813Z,96000.34
2023-03-29T05:32:40.572Z,96004.44
2023-03-29T05:35:07.452Z,96009.09
2023-03-29T05:37:34.317Z,96003.41
2023-03-29T05:40:05.965Z,96008.00
2023-03-29T05:42:32.852Z,96005.16
2023-03-29T05:44:59.442Z,95997.19
2023-03-29T05:47:25.956Z,96001.72
2023-03-29T05:49:52.523Z,96004.63
2023-03-29T05:52:19.036Z,96008.22
2023-03-29T05:54:45.526Z,96018.13
2023-03-29T05:57:12.092Z,96019.22
2023-03-29T05:59:38.620Z,96032.38
2023-03-29T06:02:05.241Z,96034.00
2023-03-29T06:04:31.871Z,96013.16
2023-03-29T06:06:58.546Z,96026.28
2023-03-29T06:09:25.029Z,96036.88
2023-03-29T06:11:51.547Z,96031.25
2023-03-29T06:14:18.028Z,96024.75
2023-03-29T06:16:44.585Z,96025.03
2023-03-29T06:19:11.077Z,96028.22
2023-03-29T06:21:37.569Z,96031.03
2023-03-29T06:24:04.402Z,96035.66
2023-03-29T06:26:30.933Z,96039.88
2023-03-29T06:28:57.553Z,96052.78
2023-03-29T06:31:24.069Z,96046.22
2023-03-29T06:33:50.577Z,96036.22
2023-03-29T06:36:17.058Z,96041.50
2023-03-29T06:38:43.863Z,96052.09
2023-03-29T06:41:10.401Z,96049.13
2023-03-29T06:43:37.559Z,96048.09
2023-03-29T06:46:04.353Z,96048.03
2023-03-29T06:48:30.932Z,96047.16
2023-03-29T06:50:57.401Z,96040.69
2023-03-29T06:53:23.858Z,96048.72
2023-03-29T06:55:51.008Z,96048.56
2023-03-29T06:58:17.520Z,96048.31
2023-03-29T07:00:44.020Z,96051.13
2023-03-29T07:03:10.531Z,96037.94
2023-03-29T07:05:37.216Z,96039.75
2023-03-29T07:08:03.715Z,96047.19
2023-03-29T07:10:42.953Z,96051.16
2023-03-29T07:13:11.015Z,96043.22
2023-03-29T07:15:37.600Z,96055.47
2023-03-29T07:18:04.126Z,96063.66
2023-03-29T07:20:31.814Z,96070.25
2023-03-29T07:22:58.394Z,96069.91
2023-03-29T07:25:26.590Z,96080.13
2023-03-29T07:27:53.595Z,96079.66
2023-03-29T07:30:24.079Z,96084.44
2023-03-29T07:32:51.527Z,96083.31
2023-03-29T07:35:18.417Z,96072.44
2023-03-29T07:37:45.575Z,96087.72
2023-03-29T07:40:15.784Z,96090.25
2023-03-29T07:42:43.933Z,96084.69
2023-03-29T07:45:11.642Z,96084.63
2023-03-29T07:47:38.157Z,96077.94
2023-03-29T07:50:05.140Z,96080.97
2023-03-29T07:52:31.643Z,96074.38
2023-03-29T07:54:58.223Z,96074.47
2023-03-29T07:57:25.946Z,96076.28
2023-03-29T07:59:53.789Z,96078.09
2023-03-29T08:02:20.386Z,96084.69
2023-03-29T08:04:47.642Z,96088.16
2023-03-29T08:07:17.647Z,96081.97
2023-03-29T08:09:45.417Z,96083.88
2023-03-29T08:12:12.006Z,96089.81
2023-03-29T08:14:38.584Z,96094.75
2023-03-29T08:17:07.468Z,96106.25
2023-03-29T08:19:34.296Z,96109.91
2023-03-29T08:22:00.757Z,96108.63
2023-03-29T08:24:27.260Z,96118.31
2023-03-29T08:26:53.788Z,96115.28
2023-03-29T08:29:20.344Z,96101.03
2023-03-29T08:31:46.821Z,96106.34
2023-03-29T08:34:13.836Z,96093.06
2023-03-29T08:36:40.353Z,96098.19
2023-03-29T08:39:06.973Z,96093.75
2023-03-29T08:42:00.511Z,96101.88
2023-03-29T08:44:45.319Z,96096.44
2023-03-29T08:47:33.387Z,96098.22
2023-03-29T08:49:59.961Z,96088.22
2023-03-29T08:52:45.291Z,96098.94
2023-03-29T08:55:20.263Z,96107.16
2023-03-29T08:57:50.791Z,96100.41
2023-03-29T09:00:25.513Z,96101.69
2023-03-29T09:02:54.011Z,96099.31
2023-03-29T09:05:29.300Z,96107.25
2023-03-29T09:07:55.846Z,96106.53
2023-03-29T09:10:39.412Z,96101.50
2023-03-29T09:13:17.337Z,96099.91
2023-03-29T09:15:49.285Z,96095.28
2023-03-29T09:18:45.090Z,96092.75
2023-03-29T09:21:41.823Z,96098.31
2023-03-29T09:24:42.857Z,96104.34
2023-03-29T09:27:15.424Z,96098.06
2023-03-29T09:30:06.906Z,96094.59
2023-03-29T09:32:49.541Z,96102.03
2023-03-29T09:35:29.323Z,96101.78
2023-03-29T09:37:56.824Z,96100.34
2023-03-29T09:40:39.823Z,96100.00
2023-03-29T09:43:11.984Z,96094.50
2023-03-29T09:45:40.863Z,96093.25
2023-03-29T09:48:19.455Z,96099.81
2023-03-29T09:50:49.248Z,96094.50
2023-03-29T09:53:16.089Z,96097.28
2023-03-29T09:55:47.748Z,96100.59
2023-03-29T09:58:27.511Z,96095.56
2023-03-29T10:00:58.687Z,96093.50
2023-03-29T10:03:28.548Z,96093.38
2023-03-29T10:05:59.261Z,96093.31
2023-03-29T10:08:29.333Z,96085.97
2023-03-29T10:11:01.257Z,96089.28
2023-03-29T10:13:31.150Z,96089.97
2023-03-29T10:16:03.485Z,96101.06
2023-03-29T10:18:38.844Z,96087.31
2023-03-29T10:21:05.933Z,96085.28
2023-03-29T10:23:36.933Z,96084.88
2023-03-29T10:26:08.256Z,96080.03
2023-03-29T10:28:37.933Z,96085.56
2023-03-29T10:31:05.154Z,96084.56
2023-03-29T10:33:35.085Z,96083.22
2023-03-29T10:36:06.567Z,96091.81
2023-03-29T10:38:36.257Z,96082.84
2023-03-29T10:41:08.760Z,96089.78
2023-03-29T10:43:44.146Z,96079.09
2023-03-29T10:46:18.810Z,96089.31
2023-03-29T10:48:48.597Z,96093.00
2023-03-29T10:51:16.981Z,96093.81
2023-03-29T10:53:43.580Z,96091.66
2023-03-29T10:56:42.277Z,96073.06
2023-03-29T10:59:27.281Z,96059.59
2023-03-29T11:02:53.342Z,96085.84
2023-03-29T11:05:41.240Z,96079.50
2023-03-29T11:08:25.192Z,96065.53
2023-03-29T11:11:29.708Z,96056.88
2023-03-29T11:14:16.940Z,96060.16
2023-03-29T11:17:07.773Z,96078.84
2023-03-29T11:19:57.233Z,96074.75
2023-03-29T11:22:58.769Z,96058.69
2023-03-29T11:25:26.681Z,96058.56
2023-03-29T11:28:14.611Z,96052.59
2023-03-29T11:30:57.331Z,96053.53
2023-03-29T11:34:01.392Z,96071.69
2023-03-29T11:36:39.910Z,96071.78
2023-03-29T11:39:30.346Z,96059.25
2023-03-29T11:42:12.167Z,96062.53
2023-03-29T11:44:43.788Z,96053.38
2023-03-29T11:47:19.832Z,96048.94
2023-03-29T11:50:03.363Z,96057.59
2023-03-29T11:52:48.746Z,96060.97
2023-03-29T11:55:22.534Z,96060.00
2023-03-29T11:58:18.617Z,96070.25
2023-03-29T12:01:01.660Z,96069.03
2023-03-29T12:03:41.558Z,96062.16
2023-03-29T12:06:21.564Z,96046.50
2023-03-29T12:09:07.754Z,96027.16
2023-03-29T12:12:02.045Z,96021.72
2023-03-29T12:15:13.384Z,96033.22
2023-03-29T12:17:51.593Z,96030.75
2023-03-29T12:20:23.834Z,96024.09
2023-03-29T12:22:50.613Z,96010.63
2023-03-29T12:25:24.905Z,96000.63
2023-03-29T12:28:20.822Z,96014.56
2023-03-29T12:31:00.505Z,96017.44
2023-03-29T12:33:43.887Z,96005.13
2023-03-29T12:36:47.379Z,96008.38
2023-03-29T12:39:18.220Z,95995.63
2023-03-29T12:41:45.844Z,96012.81
2023-03-29T12:44:16.419Z,96008.44
2023-03-29T12:46:44.132Z,96008.63
2023-03-29T12:49:23.627Z,95997.91
2023-03-29T12:51:50.224Z,96006.84
2023-03-29T12:54:22.509Z,96011.72
2023-03-29T12:56:52.076Z,96002.97
2023-03-29T12:59:39.810Z,96005.53
2023-03-29T13:02:12.433Z,95998.31
2023-03-29T13:04:54.818Z,96001.63
2023-03-29T13:07:24.227Z,95993.91
2023-03-29T13:09:56.790Z,95994.34
2023-03-29T13:12:36.175Z,96005.47
2023-03-29T13:15:16.463Z,96005.13
2023-03-29T13:18:19.399Z,95998.28
2023-03-29T13:20:58.815Z,95982.06
2023-03-29T13:24:00.337Z,95988.31
2023-03-29T13:26:57.428Z,95965.47
2023-03-29T13:29:44.585Z,95961.63
2023-03-29T13:32:31.806Z,95970.09
2023-03-29T13:35:22.456Z,95961.94
2023-03-29T13:38:04.231Z,95952.53
2023-03-29T13:40:32.604Z,95942.53
2023-03-29T13:43:18.815Z,95950.47
2023-03-29T13:45:57.678Z,95947.63
2023-03-29T13:48:36.443Z,95952.38
2023-03-29T13:51:02.881Z,95946.69
2023-03-29T13:53:39.297Z,95943.16
2023-03-29T13:56:10.778Z,95944.00
2023-03-29T13:58:43.119Z,95938.03
2023-03-29T14:01:53.012Z,95935.78
2023-03-29T14:04:25.302Z,95923.31
2023-03-29T14:06:56.055Z,95923.41
2023-03-29T14:09:29.608Z,95923.78
2023-03-29T14:11:58.956Z,95923.06
2023-03-29T14:14:29.839Z,95928.56
2023-03-29T14:16:57.101Z,95919.34
2023-03-29T14:19:31.625Z,95913.53
2023-03-29T14:22:01.155Z,95913.38
2023-03-29T14:24:37.420Z,95905.31
2023-03-29T14:27:06.363Z,95900.16
2023-03-29T14:29:34.932Z,95898.72
2023-03-29T14:32:13.763Z,95899.66
2023-03-29T14:34:40.773Z,95908.22
2023-03-29T14:37:10.044Z,95899.00
2023-03-29T14:39:37.376Z,95895.00
2023-03-29T14:42:10.370Z,95889.31
2023-03-29T14:44:36.911Z,95888.81
2023-03-29T14:47:03.816Z,95890.44
2023-03-29T14:49:32.147Z,95886.72
2023-03-29T14:51:59.176Z,95879.50
2023-03-29T14:54:29.851Z,95878.69
2023-03-29T14:56:56.470Z,95876.47
2023-03-29T14:59:35.898Z,95869.28
2023-03-29T15:02:02.685Z,95860.66
2023-03-29T15:04:36.044Z,95867.41
2023-03-29T15:07:04.399Z,95866.78
2023-03-29T15:09:34.629Z,95865.41
2023-03-29T15:12:03.239Z,95865.09
2023-03-29T15:14:33.291Z,95858.19
2023-03-29T15:17:06.545Z,95858.75
2023-03-29T15:19:33.895Z,95854.13
2023-03-29T15:22:04.539Z,95858.38
2023-03-29T15:24:33.553Z,95853.09
2023-03-29T15:27:03.948Z,95850.38
2023-03-29T15:29:36.009Z,95849.97
2023-03-29T15:32:02.895Z,95836.94
2023-03-29T15:34:31.654Z,95838.81
2023-03-29T15:37:00.566Z,95833.22
2023-03-29T15:39:28.859Z,95833.69
2023-03-29T15:41:57.733Z,95836.81
2023-03-29T15:44:31.776Z,95832.06
2023-03-29T15:46:58.384Z,95831.84
2023-03-29T15:49:25.865Z,95826.38
2023-03-29T15:51:53.869Z,95819.72
2023-03-29T15:54:21.597Z,95824.28
2023-03-29T15:56:54.401Z,95815.66
2023-03-29T15:59:21.763Z,95804.16
2023-03-29T16:01:48.985Z,95810.16
2023-03-29T16:04:18.369Z,95800.53
2023-03-29T16:06:47.322Z,95804.81
2023-03-29T16:09:14.423Z,95802.97
2023-03-29T16:11:42.498Z,95796.44
2023-03-29T16:14:25.051Z,95794.34
2023-03-29T16:16:52.172Z,95790.38
2023-03-29T16:19:19.501Z,95787.59
2023-03-29T16:21:46.035Z,95792.50
2023-03-29T16:24:18.588Z,95789.00
2023-03-29T16:26:45.778Z,95791.31
2023-03-29T16:29:12.637Z,95791.09
2023-03-29T16:31:39.204Z,95786.66
2023-03-29T16:34:06.151Z,95783.75
2023-03-29T16:36:32.696Z,95782.56
2023-03-29T16:38:59.946Z,95775.03
2023-03-29T16:41:26.476Z,95769.91
2023-03-29T16:43:53.253Z,95772.22
2023-03-29T16:46:19.804Z,95772.09
2023-03-29T16:48:46.324Z,95767.81
2023-03-29T16:51:12.831Z,95757.59
2023-03-29T16:53:39.529Z,95764.00
2023-03-29T16:56:06.504Z,95758.19
2023-03-29T16:58:33.060Z,95765.69
2023-03-29T17:01:07.727Z,95765.69
2023-03-29T17:03:35.684Z,95762.88
2023-03-29T17:06:02.829Z,95765.44
2023-03-29T17:08:29.953Z,95759.34
2023-03-29T17:10:56.610Z,95754.69
2023-03-29T17:13:23.750Z,95761.47
2023-03-29T17:15:51.275Z,95767.00
2023-03-29T17:18:18.752Z,95777.88
2023-03-29T17:20:45.317Z,95772.09
2023-03-29T17:23:12.332Z,95782.03
2023-03-29T17:25:38.992Z,95782.41
2023-03-29T17:28:05.586Z,95775.41
2023-03-29T17:30:34.246Z,95774.69
2023-03-29T17:33:01.013Z,95764.53
2023-03-29T17:35:27.708Z,95769.63
2023-03-29T17:37:54.357Z,95765.94
2023-03-29T17:40:21.439Z,95765.94
2023-03-29T17:42:47.969Z,95763.25
2023-03-29T17:45:15.810Z,95763.09
2023-03-29T17:47:42.275Z,95764.81
2023-03-29T17:50:11.258Z,95774.69
2023-03-29T17:52:37.865Z,95762.56
2023-03-29T17:55:04.554Z,95759.53
2023-03-29T17:57:31.015Z,95759.97
2023-03-29T17:59:57.505Z,95760.88
2023-03-29T18:02:24.578Z,95760.50
2023-03-29T18:04:51.141Z,95765.31
2023-03-29T18:07:17.651Z,95766.34
2023-03-29T18:09:44.147Z,95759.63
2023-03-29T18:12:10.645Z,95755.28
2023-03-29T18:14:37.136Z,95750.47
2023-03-29T18:17:03.681Z,95760.69
2023-03-29T18:19:30.311Z,95758.69
2023-03-29T18:21:56.798Z,95765.28
2023-03-29T18:24:23.299Z,95763.69
2023-03-29T18:26:49.794Z,95783.41
2023-03-29T18:29:16.286Z,95785.22
2023-03-29T18:31:42.953Z,95774.34
2023-03-29T18:34:09.464Z,95767.22
2023-03-29T18:36:35.925Z,95749.53
2023-03-29T18:39:02.614Z,95747.91
2023-03-29T18:41:29.090Z,95754.88
2023-03-29T18:43:55.566Z,95763.72
2023-03-29T18:46:22.217Z,95761.69
2023-03-29T18:48:48.755Z,95762.56
2023-03-29T18:51:15.271Z,95765.63
2023-03-29T18:53:41.774Z,95762.66
2023-03-29T18:56:08.948Z,95765.44
2023-03-29T18:58:35.431Z,95776.03
2023-03-29T19:01:03.737Z,95768.38
2023-03-29T19:03:31.936Z,95775.56
2023-03-29T19:05:58.586Z,95780.47
2023-03-29T19:08:25.311Z,95791.28
2023-03-29T19:10:53.104Z,95790.72
2023-03-29T19:13:19.926Z,95779.22
2023-03-29T19:15:46.520Z,95791.28
2023-03-29T19:18:13.037Z,95784.94
2023-03-29T19:20:39.534Z,95787.91
2023-03-29T19:23:06.030Z,95783.66
2023-03-29T19:25:32.590Z,95795.09
2023-03-29T19:27:59.987Z,95797.94
2023-03-29T19:30:26.591Z,95795.00
2023-03-29T19:32:53.109Z,95795.38
2023-03-29T19:35:20.203Z,95797.00
2023-03-29T19:37:46.699Z,95798.97
2023-03-29T19:40:13.381Z,95793.66
2023-03-29T19:42:40.590Z,95798.34
2023-03-29T19:45:08.478Z,95793.41
2023-03-29T19:47:35.667Z,95794.00
2023-03-29T19:50:02.606Z,95796.50
2023-03-29T19:52:29.873Z,95787.88
2023-03-29T19:54:57.146Z,95791.28
2023-03-29T19:57:23.956Z,95788.38
2023-03-29T19:59:51.023Z,95781.19
2023-03-29T20:02:17.584Z,95771.16
2023-03-29T20:04:44.377Z,95778.72
2023-03-29T20:07:11.090Z,95774.22
2023-03-29T20:09:37.622Z,95773.16
2023-03-29T20:12:04.721Z,95773.53
2023-03-29T20:14:31.394Z,95770.81
2023-03-29T20:16:57.896Z,95770.56
2023-03-29T20:19:24.419Z,95765.59
2023-03-29T20:21:52.549Z,95767.97
2023-03-29T20:24:19.012Z,95775.31
2023-03-29T20:26:45.495Z,95771.59
2023-03-29T20:29:12.003Z,95767.97
2023-03-29T20:31:38.639Z,95763.44
2023-03-29T20:34:05.164Z,95764.66
2023-03-29T20:36:31.749Z,95759.34
2023-03-29T20:38:58.484Z,95748.69
2023-03-29T20:41:25.467Z,95754.22
2023-03-29T20:43:52.144Z,95756.47
2023-03-29T20:46:18.755Z,95754.00
2023-03-29T20:48:45.280Z,95754.88
2023-03-29T20:51:12.435Z,95763.50
2023-03-29T20:53:38.926Z,95766.31
2023-03-29T20:56:05.551Z,95765.91
2023-03-29T20:58:32.072Z,95763.66
2023-03-29T21:00:58.531Z,95760.59
2023-03-29T21:03:25.185Z,95762.22
2023-03-29T21:05:54.842Z,95755.25
2023-03-29T21:08:21.459Z,95763.88
2023-03-29T21:10:47.945Z,95767.56
2023-03-29T21:13:14.462Z,95766.34
2023-03-29T21:15:41.016Z,95758.59
2023-03-29T21:18:07.546Z,95760.22
2023-03-29T21:20:36.411Z,95759.41
2023-03-29T21:23:02.982Z,95761.13
2023-03-29T21:25:29.464Z,95757.88
2023-03-29T21:27:55.960Z,95756.63
2023-03-29T21:30:22.450Z,95750.06
2023-03-29T21:32:48.922Z,95743.16
2023-03-29T21:35:15.491Z,95749.28
2023-03-29T21:37:41.987Z,95738.44
2023-03-29T21:40:08.838Z,95744.38
2023-03-29T21:42:35.373Z,95747.25
2023-03-29T21:45:02.282Z,95752.13
2023-03-29T21:47:28.875Z,95747.81
2023-03-29T21:49:55.508Z,95741.06
2023-03-29T21:52:21.987Z,95742.28
2023-03-29T21:54:48.485Z,95745.78
2023-03-29T21:57:15.033Z,95737.41
2023-03-29T21:59:41.524Z,95739.00
2023-03-29T22:02:08.109Z,95738.16
2023-03-29T22:04:37.153Z,95730.03
2023-03-29T22:07:05.229Z,95724.69
2023-03-29T22:09:33.233Z,95717.72
2023-03-29T22:11:59.970Z,95720.97
2023-03-29T22:14:26.506Z,95716.84
2023-03-29T22:16:53.035Z,95716.44
2023-03-29T22:19:19.539Z,95715.59
2023-03-29T22:21:46.040Z,95713.34
2023-03-29T22:24:12.515Z,95709.66
2023-03-29T22:26:38.962Z,95700.03
2023-03-29T22:29:05.450Z,95702.69
2023-03-29T22:31:32.629Z,95704.22
2023-03-29T22:33:59.178Z,95699.22
2023-03-29T22:36:28.592Z,95689.19
2023-03-29T22:38:55.867Z,95690.00
2023-03-29T22:41:24.657Z,95688.75
2023-03-29T22:43:52.576Z,95682.41
2023-03-29T22:46:19.739Z,95688.56
2023-03-29T22:48:47.130Z,95688.03
2023-03-29T22:51:14.280Z,95675.72
2023-03-29T22:53:40.787Z,95674.88
2023-03-29T22:56:07.939Z,95678.19
2023-03-29T22:58:35.614Z,95682.44
2023-03-29T23:01:02.225Z,95681.25
2023-03-29T23:03:28.857Z,95674.69
2023-03-29T23:05:58.241Z,95677.50
2023-03-29T23:08:25.087Z,95667.69
2023-03-29T23:10:52.393Z,95675.06
2023-03-29T23:13:19.650Z,95673.03
2023-03-29T23:15:48.522Z,95664.03
2023-03-29T23:18:16.464Z,95673.03
2023-03-29T23:20:42.995Z,95665.47
2023-03-29T23:23:09.815Z,95661.94
2023-03-29T23:25:36.525Z,95653.38
2023-03-29T23:28:03.869Z,95644.97
2023-03-29T23:30:30.421Z,95644.41
2023-03-29T23:32:56.905Z,95634.38
2023-03-29T23:35:23.420Z,95622.78
2023-03-29T23:37:49.951Z,95621.16
2023-03-29T23:40:16.493Z,95621.00
2023-03-29T23:42:45.408Z,95622.91
2023-03-29T23:45:15.129Z,95620.47
2023-03-29T23:47:43.364Z,95629.88
2023-03-29T23:50:12.396Z,95628.00
2023-03-29T23:52:40.698Z,95621.31
2023-03-29T23:55:12.235Z,95615.38
2023-03-29T23:57:38.722Z,95608.44
